Arnold, Nebraska
Current Conditions -  °F | °C
As of 12:22 PM on Wednesday 26 Nov 2014 (Local Time) from KBBW Reporting Station
Scattered Clouds Scattered Clouds  
Wind Chill: 14°   Ceiling: Unl
Heat Index: 28°   Visibility: 10mi
Dew Point: 18°   Wind: 23mph
Humidity: 66%   Direction: 340°NNW
Pressure: 30.25"   Gusts: 29mph
Location:  41.42°N, 100.19°W
Report Text: KBBW 261822Z AUTO 34020G25KT 10SM SCT018 M02/M08 A3025 RMK AO2 T10221078
Loading
Personal Weather Stations






























Interactive Weather Map New forecast layout! Learn more

10-Day Weather Forecast

Advertisements
Track Severe Weather on mobile